Alpine, Oregon
Current Conditions -  °F | °C
As of 2:55 AM on Friday 31 Oct 2014 (Local Time) from KCVO Reporting Station
Overcast Overcast  
Wind Chill: 57°   Ceiling: 2000
Heat Index: 57°   Visibility: 5mi
Dew Point: 55°   Wind: 3mph
Humidity: 94%   Direction: 210°SSW
Pressure: 29.71"   Gusts: NA
Location:  44.3398°N, 123.353°W
Report Text: KCVO 310955Z AUTO 21003KT 5SM FEW014 BKN020 OVC035 14/13 A2971 RMK AO1 P0012
Loading
Personal Weather Stations






























Interactive Weather Map New forecast layout! Learn more

10-Day Weather Forecast

Advertisements
Track Severe Weather on mobile